Vermilion Bay, Canada
Current Conditions -  °F | °C
As of 9:00 AM on Friday 21 Nov 2014 (Local Time) from CYHD Reporting Station
Overcast Overcast  
Wind Chill: -3°   Ceiling: 6500
Heat Index: 14°   Visibility: 9mi
Dew Point:   Wind: 18mph
Humidity: 67%   Direction: 190°S
Pressure: 29.79"   Gusts: 25mph
Location:  49.85°N, 93.38°W
Report Text: CYHD 211500Z AUTO 19016G22KT 9SM OVC065 M10/M15 A2979 RMK SLP125
Loading
Personal Weather Stations






























Interactive Weather Map New forecast layout! Learn more

10-Day Weather Forecast

Advertisements
Track Severe Weather on mobile